Pagrindinis puslapis
METAR-TAF:

METAR-TAF

Oro uostai :

Džida, Saudo Arabija

platuma: 21-42N, ilguma: 039-11E, Aukštis: 15 m

Dabartinis oras

Ataskaita buvo paskelbta 56 minutes, ne 09:00 UTC
Vėjas 6 kt iš Vakarų
Temperatūra 27°C
Drėgmė 39%
Slėgis 1014 hPa
Matomumas 10 km arba daugiau
Išsisklaidę debesys ne aukštis 4000 ft

METAR: OEJN 090900Z 28006KT 9999 SCT040 27/12 Q1014 NOSIG

Laikas: 12:56 (09:56 UTC)

Prognozė

Ataskaita buvo paskelbta 4 valandos ir 56 minutes, ne 05:00 UTC
Prognozė galioja nuo 09 metu 06 UTC su 10 metu 12 UTC
Vėjas 10 kt iš Šiaurės/Šiaurės Rytų
Matomumas 10 km arba daugiau
nėra debesų žemiau 1500 m ir nėra kamuolinių lietaus debesų
Tapsmas
nuo 09 metu 20 UTC su 09 metu 22 UTC
Vėjas 9 kt iš Šiaurės/Šiaurės Rytų

TAF: OEJN 090500Z 0906/1012 02010KT CAVOK BECMG 0920/0922 03009KT

Orai ataskaitas ir orų prognozės (METAR, TAF).

turimą stotys yra geltonos ir raudonos taškus žemėlapyje.

Perkelti pele per norėdami pamatyti stoties vardą.

Tada spustelėkite, norėdami matyti oro stebėjimo ir prognozės.

Norėdami pakeisti žemėlapį: spustelėkite ant žalios mygtukų su juodo kryžiaus žemyn,; žalią mygtuką su brūkšneliu, jei norite nutolinti; arba žalių rodyklių gretimoms žemėlapius.


METAR-TAF: